Time;durP1;ratioP1;P1;durP2;ratioP2;P2;SDS_P1;SDS_P2;PMS_P1;PMS_P2;Temp;Humidity;BMP_temperature;BMP_pressure;BME280_temperature;BME280_humidity;BME280_pressure;Samples;Min_cycle;Max_cycle;Signal;HPM_P1;HPM_P2
2021/10/25 00:00:10;;;;;;;34.93;32.60;;;5.00;99.90;;;;;;6159573;23;20547;-76
2021/10/25 00:02:42;;;;;;;154.47;49.20;;;4.90;99.90;;;;;;6186523;23;20387;-76
2021/10/25 00:05:10;;;;;;;43.20;40.47;;;4.90;99.90;;;;;;6159808;23;20430;-76
2021/10/25 00:07:38;;;;;;;38.40;36.10;;;4.90;99.90;;;;;;6196235;23;20475;-76
2021/10/25 00:10:07;;;;;;;45.60;42.57;;;4.90;99.90;;;;;;6195947;23;20419;-76
2021/10/25 00:12:36;;;;;;;160.03;36.63;;;4.90;99.90;;;;;;6186580;23;20494;-76
2021/10/25 00:15:07;;;;;;;42.40;39.93;;;4.90;99.90;;;;;;6159679;23;20408;-76
2021/10/25 00:17:35;;;;;;;38.40;35.37;;;4.80;99.90;;;;;;6185863;23;20974;-76
2021/10/25 00:20:04;;;;;;;182.90;53.70;;;4.80;99.90;;;;;;6159493;23;20498;-76
2021/10/25 00:22:33;;;;;;;49.43;46.57;;;4.80;99.90;;;;;;6159907;23;20888;-76
2021/10/25 00:25:01;;;;;;;47.50;45.10;;;4.80;99.90;;;;;;6159646;23;20414;-76
2021/10/25 00:27:33;;;;;;;74.57;60.93;;;4.80;99.90;;;;;;6160669;23;20485;-76
2021/10/25 00:30:01;;;;;;;47.40;44.47;;;4.80;99.90;;;;;;6158784;23;20452;-76
2021/10/25 00:32:30;;;;;;;51.27;47.73;;;4.80;99.90;;;;;;6159443;23;20416;-76
2021/10/25 00:34:59;;;;;;;40.07;37.57;;;4.70;99.90;;;;;;6196099;23;20784;-76
2021/10/25 00:37:27;;;;;;;42.87;40.40;;;4.70;99.90;;;;;;6159520;23;20479;-76
2021/10/25 00:39:55;;;;;;;36.23;34.17;;;4.70;99.90;;;;;;6185728;23;20496;-76
2021/10/25 00:42:23;;;;;;;39.57;36.60;;;4.70;99.90;;;;;;6159566;23;20783;-76
2021/10/25 00:44:52;;;;;;;33.80;31.67;;;4.70;99.90;;;;;;6159354;23;20419;-76
2021/10/25 00:47:20;;;;;;;44.03;40.90;;;4.70;99.90;;;;;;6196054;23;20392;-76
2021/10/25 00:49:49;;;;;;;46.67;43.97;;;4.70;99.90;;;;;;6159088;23;20447;-76
2021/10/25 00:52:19;;;;;;;35.83;33.87;;;4.60;99.90;;;;;;6160106;23;20455;-76
2021/10/25 00:54:47;;;;;;;231.50;42.23;;;4.60;99.90;;;;;;6159298;23;20470;-76
2021/10/25 00:57:15;;;;;;;169.27;39.80;;;4.60;99.90;;;;;;6159298;23;20418;-76
2021/10/25 00:59:44;;;;;;;157.57;46.93;;;4.60;99.90;;;;;;6159138;23;20531;-76
2021/10/25 01:02:12;;;;;;;267.10;48.30;;;4.60;99.90;;;;;;6159329;23;20446;-76
2021/10/25 01:04:40;;;;;;;128.63;43.90;;;4.60;99.90;;;;;;6159326;23;20422;-76
2021/10/25 01:07:14;;;;;;;24.63;22.90;;;4.60;99.90;;;;;;6159329;23;20802;-76
2021/10/25 01:09:42;;;;;;;40.17;37.93;;;4.60;99.90;;;;;;6158845;23;20453;-76
2021/10/25 01:12:11;;;;;;;122.67;37.03;;;4.60;99.90;;;;;;6159193;23;20507;-76
2021/10/25 01:14:40;;;;;;;177.17;60.83;;;4.60;99.90;;;;;;6159293;23;20463;-76
2021/10/25 01:17:08;;;;;;;113.77;41.10;;;4.60;99.90;;;;;;6159505;23;20451;-76
2021/10/25 01:19:41;;;;;;;47.40;44.90;;;4.60;99.90;;;;;;6159185;23;20522;-76
2021/10/25 01:22:11;;;;;;;35.30;33.30;;;4.50;99.90;;;;;;6159428;23;20422;-76
2021/10/25 01:24:43;;;;;;;70.90;65.97;;;4.50;99.90;;;;;;6159479;23;20447;-76
2021/10/25 01:27:12;;;;;;;162.23;50.90;;;4.60;99.90;;;;;;6159187;23;20867;-76
2021/10/25 01:29:40;;;;;;;41.20;38.87;;;4.50;99.90;;;;;;6158943;23;20440;-77
2021/10/25 01:32:10;;;;;;;33.00;30.93;;;4.50;99.90;;;;;;6186051;23;20404;-76
2021/10/25 01:34:39;;;;;;;27.37;25.67;;;4.50;99.90;;;;;;6160057;23;20426;-76
2021/10/25 01:37:09;;;;;;;173.77;40.93;;;4.50;99.90;;;;;;6159172;23;20412;-76
2021/10/25 01:39:41;;;;;;;38.23;36.03;;;4.50;99.90;;;;;;6159254;23;20447;-76
2021/10/25 01:42:09;;;;;;;46.47;43.87;;;4.50;99.90;;;;;;6161178;23;20415;-76
2021/10/25 01:44:39;;;;;;;85.30;33.40;;;4.40;99.90;;;;;;6161135;23;20412;-76
2021/10/25 01:47:09;;;;;;;44.80;42.00;;;4.40;99.90;;;;;;6162077;23;20746;-76
2021/10/25 01:49:38;;;;;;;175.77;37.40;;;4.40;99.90;;;;;;6161828;23;20446;-76
2021/10/25 01:52:08;;;;;;;33.80;31.87;;;4.40;99.90;;;;;;6160948;23;21014;-76
2021/10/25 01:54:45;;;;;;;94.10;35.43;;;4.40;99.90;;;;;;6161220;23;20419;-76
2021/10/25 01:57:13;;;;;;;48.90;46.40;;;4.40;99.90;;;;;;6160961;23;20993;-76
2021/10/25 01:59:41;;;;;;;156.40;51.73;;;4.40;99.90;;;;;;6160806;23;20439;-76
2021/10/25 02:02:10;;;;;;;242.07;46.37;;;4.40;99.90;;;;;;6160937;23;20411;-76
2021/10/25 02:04:39;;;;;;;35.37;33.17;;;4.40;99.90;;;;;;6161032;23;20419;-76
2021/10/25 02:07:07;;;;;;;141.13;55.77;;;4.30;99.90;;;;;;6160988;23;20427;-76
2021/10/25 02:09:35;;;;;;;1999.90;632.43;;;4.40;99.90;;;;;;6160309;23;20447;-77
2021/10/25 02:12:06;;;;;;;136.90;46.73;;;4.40;99.90;;;;;;6160915;23;20427;-76
2021/10/25 02:14:36;;;;;;;144.83;53.03;;;4.30;99.90;;;;;;6161862;23;20462;-76
2021/10/25 02:17:04;;;;;;;183.77;45.27;;;4.30;99.90;;;;;;6160844;23;20910;-76
2021/10/25 02:19:46;;;;;;;118.60;50.67;;;4.40;99.90;;;;;;6160814;23;20438;-76
2021/10/25 02:22:16;;;;;;;178.60;41.53;;;4.30;99.90;;;;;;6160738;23;20487;-76
2021/10/25 02:24:45;;;;;;;33.30;31.20;;;4.30;99.90;;;;;;6160667;23;20527;-77
2021/10/25 02:27:15;;;;;;;126.77;46.40;;;4.30;99.90;;;;;;6160799;23;20415;-76
2021/10/25 02:29:43;;;;;;;166.63;54.30;;;4.30;99.90;;;;;;6160833;23;20492;-76
2021/10/25 02:32:18;;;;;;;161.73;34.40;;;4.30;99.90;;;;;;6160930;23;20415;-76
2021/10/25 02:34:48;;;;;;;144.47;35.57;;;4.30;99.90;;;;;;6160485;23;20419;-76
2021/10/25 02:37:19;;;;;;;154.70;46.17;;;4.30;99.90;;;;;;6160559;23;20423;-76
2021/10/25 02:39:53;;;;;;;104.40;32.00;;;4.30;99.90;;;;;;6160488;23;20954;-76
2021/10/25 02:42:22;;;;;;;141.17;31.40;;;4.30;99.90;;;;;;6160744;23;20841;-76
2021/10/25 02:44:50;;;;;;;260.90;47.20;;;4.30;99.90;;;;;;6161093;23;20470;-76
2021/10/25 02:47:18;;;;;;;167.27;37.63;;;4.30;99.90;;;;;;6160739;23;20470;-76
2021/10/25 02:49:47;;;;;;;157.73;34.13;;;4.30;99.90;;;;;;6160624;23;20444;-76
2021/10/25 02:52:15;;;;;;;107.70;25.53;;;4.30;99.90;;;;;;6160089;23;20416;-76
2021/10/25 02:54:44;;;;;;;134.07;27.93;;;4.30;99.90;;;;;;6160640;23;20502;-76
2021/10/25 02:57:14;;;;;;;139.33;27.43;;;4.40;99.90;;;;;;6160414;23;20440;-76
2021/10/25 02:59:43;;;;;;;176.07;29.30;;;4.30;99.90;;;;;;6160435;23;20496;-76
2021/10/25 03:02:12;;;;;;;124.97;30.70;;;4.40;99.90;;;;;;6160356;23;20438;-77
2021/10/25 03:04:41;;;;;;;145.90;30.73;;;4.40;99.90;;;;;;6159991;23;20416;-76
2021/10/25 03:07:09;;;;;;;157.93;29.47;;;4.40;99.90;;;;;;6160492;23;20899;-77
2021/10/25 03:09:43;;;;;;;138.23;33.40;;;4.40;99.90;;;;;;6160397;23;20445;-79
2021/10/25 03:12:13;;;;;;;111.23;26.23;;;4.40;99.90;;;;;;6160373;23;20503;-76
2021/10/25 03:14:44;;;;;;;126.07;26.13;;;4.40;99.90;;;;;;6160593;23;20423;-77
2021/10/25 03:17:12;;;;;;;152.43;33.73;;;4.40;99.90;;;;;;6160169;23;20415;-76
2021/10/25 03:20:13;;;;;;;1999.90;619.33;;;4.40;99.90;;;;;;6164448;23;20430;-77
2021/10/25 03:22:45;;;;;;;83.07;29.33;;;4.40;99.90;;;;;;6160272;23;20424;-77
2021/10/25 03:25:16;;;;;;;180.37;30.53;;;4.40;99.90;;;;;;6160030;23;20420;-77
2021/10/25 03:27:45;;;;;;;168.13;29.10;;;4.40;99.90;;;;;;6160318;23;20903;-77
2021/10/25 03:30:16;;;;;;;164.40;25.70;;;4.40;99.90;;;;;;6196825;23;20442;-77
2021/10/25 03:32:48;;;;;;;101.60;26.10;;;4.40;99.90;;;;;;6160415;23;20906;-76
2021/10/25 03:35:35;;;;;;;86.23;30.77;;;4.40;99.90;;;;;;6186529;23;20386;-76
2021/10/25 03:38:07;;;;;;;168.20;32.87;;;4.40;99.90;;;;;;6159995;23;20407;-76
2021/10/25 03:40:36;;;;;;;117.13;27.50;;;4.40;99.90;;;;;;6159859;23;20443;-77
2021/10/25 03:43:04;;;;;;;169.23;34.87;;;4.50;99.90;;;;;;6159990;23;20511;-77
2021/10/25 03:45:38;;;;;;;141.67;29.70;;;4.40;99.90;;;;;;6159911;23;20422;-77
2021/10/25 03:48:11;;;;;;;185.77;34.30;;;4.50;99.90;;;;;;6160004;23;20911;-76
2021/10/25 03:50:42;;;;;;;122.97;31.33;;;4.40;99.90;;;;;;6160076;23;20503;-76
2021/10/25 03:53:27;;;;;;;107.27;30.77;;;4.50;99.90;;;;;;6159928;23;20462;-77
2021/10/25 03:56:01;;;;;;;188.17;39.73;;;4.50;99.90;;;;;;6160096;23;20418;-76
2021/10/25 04:01:33;;;;;;;174.13;39.20;;;4.40;99.90;;;;;;6159904;23;20404;-76
2021/10/25 04:26:57;;;;;;;159.83;33.57;;;4.40;99.90;;;;;;6159737;23;20747;-77
2021/10/25 04:29:28;;;;;;;138.60;30.83;;;4.40;99.90;;;;;;6159398;23;20505;-77
2021/10/25 04:31:57;;;;;;;147.97;39.37;;;4.50;99.90;;;;;;6159331;23;20501;-77
2021/10/25 04:34:27;;;;;;;134.47;31.30;;;4.50;99.90;;;;;;6159473;23;20422;-77
2021/10/25 04:37:15;;;;;;;213.73;39.47;;;4.50;99.90;;;;;;6185162;23;20416;-77
2021/10/25 04:39:54;;;;;;;114.23;41.43;;;4.50;99.90;;;;;;6159271;23;20454;-77
2021/10/25 04:42:23;;;;;;;153.90;41.77;;;4.60;99.90;;;;;;6159502;23;20510;-76
2021/10/25 04:44:52;;;;;;;174.90;39.50;;;4.50;99.90;;;;;;6159312;23;20416;-76
2021/10/25 04:47:20;;;;;;;133.03;36.57;;;4.50;99.90;;;;;;6159315;23;20423;-77
2021/10/25 04:49:52;;;;;;;111.60;31.33;;;4.50;99.90;;;;;;6159530;23;20958;-77
2021/10/25 04:52:43;;;;;;;135.13;39.10;;;4.50;99.90;;;;;;6185316;23;20407;-76
2021/10/25 04:55:11;;;;;;;155.87;44.53;;;4.50;99.90;;;;;;6159619;23;20446;-76
2021/10/25 04:57:39;;;;;;;145.10;45.30;;;4.50;99.90;;;;;;6160040;23;20415;-76
2021/10/25 05:00:09;;;;;;;146.00;33.13;;;4.50;99.90;;;;;;6159619;23;20953;-77
2021/10/25 05:02:38;;;;;;;119.43;35.23;;;4.40;99.90;;;;;;6159255;23;20455;-76
2021/10/25 05:05:09;;;;;;;168.53;32.27;;;4.40;99.90;;;;;;6159353;23;20415;-77
2021/10/25 05:07:37;;;;;;;115.80;31.77;;;4.40;99.90;;;;;;6195781;23;20384;-77
2021/10/25 05:10:09;;;;;;;107.43;36.60;;;4.40;99.90;;;;;;6159263;23;20431;-77
2021/10/25 05:12:37;;;;;;;181.23;40.00;;;4.40;99.90;;;;;;6159194;23;20489;-76
2021/10/25 05:15:07;;;;;;;114.00;26.13;;;4.40;99.90;;;;;;6159611;23;20419;-77
2021/10/25 05:17:35;;;;;;;158.73;37.93;;;4.40;99.90;;;;;;6161320;23;20419;-77
2021/10/25 05:20:08;;;;;;;192.17;42.07;;;4.40;99.90;;;;;;6161300;23;20466;-76
2021/10/25 05:22:40;;;;;;;148.37;32.93;;;4.40;99.90;;;;;;6161842;23;20464;-77
2021/10/25 05:25:09;;;;;;;94.63;31.70;;;4.30;99.90;;;;;;6161195;23;20502;-77
2021/10/25 05:27:37;;;;;;;120.80;38.93;;;4.30;99.90;;;;;;6161741;23;20466;-76
2021/10/25 05:30:06;;;;;;;151.57;38.27;;;4.40;99.90;;;;;;6161280;23;20463;-76
2021/10/25 05:32:35;;;;;;;183.83;38.73;;;4.30;99.90;;;;;;6161125;23;20497;-76
2021/10/25 05:35:04;;;;;;;119.17;35.73;;;4.30;99.90;;;;;;6161272;23;20910;-76
2021/10/25 05:37:34;;;;;;;129.27;33.23;;;4.30;99.90;;;;;;6160979;23;20419;-76
2021/10/25 05:40:03;;;;;;;142.10;35.40;;;4.30;99.90;;;;;;6161192;23;20449;-77
2021/10/25 05:42:43;;;;;;;139.53;35.17;;;4.30;99.90;;;;;;6161454;23;20438;-77
2021/10/25 05:45:11;;;;;;;188.93;38.67;;;4.30;99.90;;;;;;6160977;23;20964;-76
2021/10/25 05:47:39;;;;;;;84.63;31.37;;;4.30;99.90;;;;;;6160971;23;20419;-77
2021/10/25 05:50:10;;;;;;;103.40;34.97;;;4.30;99.90;;;;;;6160990;23;20436;-77
2021/10/25 05:52:40;;;;;;;210.77;48.50;;;4.30;99.90;;;;;;6197373;23;20431;-77
2021/10/25 05:55:10;;;;;;;108.40;32.40;;;4.30;99.90;;;;;;6161743;23;20782;-77
2021/10/25 05:57:40;;;;;;;145.77;32.70;;;4.30;99.90;;;;;;6160922;23;20430;-76
2021/10/25 06:00:12;;;;;;;179.57;37.23;;;4.30;99.90;;;;;;6161270;23;20431;-77
2021/10/25 06:02:53;;;;;;;192.60;39.53;;;4.30;99.90;;;;;;6160897;23;20454;-77
2021/10/25 06:05:26;;;;;;;142.70;45.13;;;4.30;99.90;;;;;;6160991;23;20466;-77
2021/10/25 06:07:55;;;;;;;136.90;34.67;;;4.30;99.90;;;;;;6160873;23;20750;-77
2021/10/25 06:10:27;;;;;;;240.40;52.40;;;4.30;99.90;;;;;;6160765;23;20447;-77
2021/10/25 06:12:59;;;;;;;114.90;33.20;;;4.20;99.90;;;;;;6160773;23;20438;-77
2021/10/25 06:15:56;;;;;;;192.90;47.57;;;4.30;99.90;;;;;;6161610;23;20399;-77
2021/10/25 06:18:25;;;;;;;162.80;39.80;;;4.20;99.90;;;;;;6160815;23;20887;-77
2021/10/25 06:20:55;;;;;;;121.63;34.43;;;4.20;99.90;;;;;;6160610;23;20435;-77
2021/10/25 06:23:25;;;;;;;167.10;34.97;;;4.20;99.90;;;;;;6160887;23;20439;-77
2021/10/25 06:25:53;;;;;;;104.00;28.80;;;4.20;99.90;;;;;;6160731;23;20759;-77
2021/10/25 06:28:26;;;;;;;174.53;36.73;;;4.20;99.90;;;;;;6160421;23;20445;-76
2021/10/25 06:31:01;;;;;;;80.77;29.90;;;4.20;99.90;;;;;;6160909;23;20511;-77
2021/10/25 06:33:49;;;;;;;125.27;34.60;;;4.20;99.90;;;;;;6187046;23;20391;-77
2021/10/25 06:36:30;;;;;;;100.60;29.73;;;4.20;99.90;;;;;;6197780;23;20844;-77
2021/10/25 06:39:23;;;;;;;183.30;36.87;;;4.20;99.90;;;;;;6160359;23;20519;-76
2021/10/25 06:41:54;;;;;;;138.00;36.93;;;4.20;99.90;;;;;;6160884;23;20404;-76
2021/10/25 06:44:39;;;;;;;136.97;34.50;;;4.20;99.90;;;;;;6160233;23;20442;-76
2021/10/25 06:47:17;;;;;;;220.93;45.90;;;4.30;99.90;;;;;;6160932;23;20882;-77
2021/10/25 06:49:46;;;;;;;88.87;27.93;;;4.20;99.90;;;;;;6160480;23;20439;-77
2021/10/25 06:52:14;;;;;;;161.23;37.03;;;4.20;99.90;;;;;;6160238;23;20474;-77
2021/10/25 06:54:45;;;;;;;166.60;33.33;;;4.20;99.90;;;;;;6160439;23;20734;-77
2021/10/25 06:57:13;;;;;;;92.77;30.33;;;4.30;99.90;;;;;;6160474;23;20424;-77
2021/10/25 06:59:49;;;;;;;124.90;36.67;;;4.30;99.90;;;;;;6160480;23;20430;-77
2021/10/25 07:02:19;;;;;;;91.23;30.00;;;4.30;99.90;;;;;;6160394;23;20438;-77
2021/10/25 07:04:51;;;;;;;153.27;41.87;;;4.30;99.90;;;;;;6160348;23;20506;-76
2021/10/25 07:07:24;;;;;;;173.37;36.37;;;4.30;99.90;;;;;;6160617;23;20419;-76
2021/10/25 07:09:56;;;;;;;108.40;28.90;;;4.40;99.90;;;;;;6160334;23;20850;-75
2021/10/25 07:12:25;;;;;;;145.50;28.63;;;4.40;99.90;;;;;;6160783;23;20465;-75
2021/10/25 07:14:55;;;;;;;117.60;26.43;;;4.40;99.90;;;;;;6160472;23;20419;-75
2021/10/25 07:17:30;;;;;;;130.23;33.77;;;4.50;99.90;;;;;;6160702;23;20431;-75
2021/10/25 07:20:27;;;;;;;161.83;29.90;;;4.50;99.90;;;;;;6160865;23;20496;-74
2021/10/25 07:26:39;;;;;;;153.63;36.07;;;4.70;99.90;;;;;;6160375;23;20415;-76
2021/10/25 08:00:51;;;;;;;109.40;27.63;;;5.70;99.90;;;;;;6159888;23;20439;-75
2021/10/25 08:06:11;;;;;;;116.10;27.03;;;5.80;99.90;;;;;;6160119;23;20462;-75
2021/10/25 08:08:52;;;;;;;98.57;31.33;;;5.90;99.90;;;;;;6160005;23;20510;-75
2021/10/25 08:11:22;;;;;;;134.50;36.27;;;6.00;99.90;;;;;;6159865;23;20407;-77
2021/10/25 08:14:12;;;;;;;129.30;33.47;;;6.00;99.90;;;;;;6196033;23;20467;-78
2021/10/25 08:16:49;;;;;;;133.57;32.97;;;6.10;99.90;;;;;;6159661;23;20412;-78
2021/10/25 08:19:25;;;;;;;129.77;36.97;;;6.10;99.90;;;;;;6159404;23;20443;-77
2021/10/25 08:21:57;;;;;;;174.60;33.27;;;6.20;99.90;;;;;;6160007;23;20418;-77
2021/10/25 08:24:30;;;;;;;128.57;28.10;;;6.20;99.90;;;;;;6159867;23;20424;-78
2021/10/25 08:27:22;;;;;;;179.07;32.13;;;6.30;99.90;;;;;;6171095;23;20407;-77
2021/10/25 08:29:51;;;;;;;135.33;36.30;;;6.40;99.90;;;;;;6159581;23;20471;-78
2021/10/25 08:32:30;;;;;;;119.83;35.87;;;6.40;99.90;;;;;;6159311;23;20510;-77
2021/10/25 08:35:22;;;;;;;108.50;36.67;;;6.50;99.90;;;;;;6159946;23;20933;-78
2021/10/25 08:41:06;;;;;;;162.20;33.73;;;6.70;99.90;;;;;;6159707;23;20474;-78
2021/10/25 08:43:36;;;;;;;204.20;44.80;;;6.70;99.90;;;;;;6159494;23;20561;-78
2021/10/25 08:46:07;;;;;;;182.23;43.53;;;6.80;99.90;;;;;;6159550;23;20416;-78
2021/10/25 08:48:42;;;;;;;260.37;46.27;;;6.90;99.90;;;;;;6159368;23;20411;-77
2021/10/25 08:51:10;;;;;;;196.83;46.13;;;7.00;99.90;;;;;;6159133;23;20433;-78
2021/10/25 08:53:39;;;;;;;103.87;34.17;;;7.00;99.90;;;;;;6159289;23;20439;-77
2021/10/25 08:56:08;;;;;;;153.23;28.53;;;7.10;99.90;;;;;;6159326;23;20498;-78
2021/10/25 08:58:54;;;;;;;148.47;36.70;;;7.20;99.90;;;;;;6159598;23;20439;-78
2021/10/25 09:01:25;;;;;;;150.27;37.30;;;7.20;99.90;;;;;;6159487;23;20499;-77
2021/10/25 09:04:16;;;;;;;200.70;40.07;;;7.30;99.90;;;;;;6196098;23;20458;-77
2021/10/25 09:06:52;;;;;;;117.00;33.37;;;7.40;99.90;;;;;;6159706;23;20434;-77
2021/10/25 09:09:24;;;;;;;207.37;38.73;;;7.50;99.90;;;;;;6159162;23;20934;-77
2021/10/25 09:12:03;;;;;;;179.77;38.83;;;7.50;99.90;;;;;;6159572;23;20897;-78
2021/10/25 09:14:37;;;;;;;199.47;37.63;;;7.60;99.90;;;;;;6160237;23;20498;-77
2021/10/25 09:17:09;;;;;;;131.10;29.50;;;7.70;99.90;;;;;;6159347;23;20420;-78
2021/10/25 09:19:48;;;;;;;145.07;37.43;;;7.70;99.90;;;;;;6159423;23;20444;-78
2021/10/25 09:22:22;;;;;;;185.53;45.40;;;7.80;99.90;;;;;;6159286;23;20407;-78
2021/10/25 09:24:52;;;;;;;149.93;38.10;;;7.90;99.90;;;;;;6159151;23;20523;-77
2021/10/25 09:27:30;;;;;;;139.53;29.80;;;7.90;99.90;;;;;;6160349;23;20412;-77
2021/10/25 09:30:08;;;;;;;114.47;32.47;;;8.00;99.90;;;;;;6159337;23;20950;-77
2021/10/25 09:32:39;;;;;;;224.17;45.23;;;8.10;99.90;;;;;;6160118;23;20427;-77
2021/10/25 09:35:40;;;;;;;179.07;33.77;;;8.10;99.90;;;;;;6159209;23;20404;-78
2021/10/25 09:38:23;;;;;;;234.87;48.20;;;8.20;99.90;;;;;;6158991;23;20411;-77
2021/10/25 09:41:19;;;;;;;254.70;50.30;;;8.20;99.90;;;;;;6158959;23;20450;-78
2021/10/25 09:49:28;;;;;;;218.37;44.93;;;8.50;99.90;;;;;;6158155;23;20760;-78
2021/10/25 09:52:00;;;;;;;246.10;46.57;;;8.50;99.90;;;;;;6159082;23;20417;-77
2021/10/25 09:54:29;;;;;;;201.03;48.07;;;8.60;99.90;;;;;;6159684;23;20436;-77
2021/10/25 09:57:05;;;;;;;242.93;49.83;;;8.70;99.90;;;;;;6159215;23;20434;-78
2021/10/25 09:59:54;;;;;;;203.93;39.70;;;8.80;99.90;;;;;;6196380;23;20432;-78
2021/10/25 10:02:42;;;;;;;259.37;43.00;;;8.90;99.90;;;;;;6186408;23;20396;-78
2021/10/25 10:05:16;;;;;;;152.40;38.00;;;8.90;99.90;;;;;;6161006;23;20450;-78
2021/10/25 10:07:48;;;;;;;226.60;43.10;;;9.00;99.90;;;;;;6160891;23;20411;-78
2021/10/25 10:10:30;;;;;;;173.70;32.23;;;9.00;99.90;;;;;;6161249;23;20431;-77
2021/10/25 10:13:04;;;;;;;160.87;29.03;;;9.10;99.90;;;;;;6161154;23;20439;-78
2021/10/25 10:15:38;;;;;;;178.97;42.27;;;9.10;99.90;;;;;;6160838;23;20444;-77
2021/10/25 10:18:11;;;;;;;252.70;47.20;;;9.20;99.90;;;;;;6161123;23;20945;-78
2021/10/25 10:21:09;;;;;;;240.73;65.10;;;9.20;99.90;;;;;;6186986;23;20486;-78
2021/10/25 10:23:42;;;;;;;242.77;48.80;;;9.30;99.90;;;;;;6161098;23;20415;-77
2021/10/25 10:26:14;;;;;;;225.83;44.73;;;9.40;99.90;;;;;;6161415;23;20404;-78
2021/10/25 10:28:47;;;;;;;205.53;52.87;;;9.40;99.90;;;;;;6161331;23;20411;-78
2021/10/25 10:31:17;;;;;;;220.20;52.70;;;9.50;99.90;;;;;;6162247;23;20491;-78
2021/10/25 10:34:09;;;;;;;266.17;59.73;;;9.50;99.90;;;;;;6160449;23;20946;-77
2021/10/25 10:36:38;;;;;;;216.60;62.87;;;9.60;99.90;;;;;;6160882;23;20415;-76
2021/10/25 10:39:18;;;;;;;246.57;55.83;;;9.60;99.90;;;;;;6160654;23;20531;-75
2021/10/25 10:42:06;;;;;;;183.00;49.40;;;9.70;99.90;;;;;;6197643;23;20728;-75
2021/10/25 10:45:03;;;;;;;214.77;50.53;;;9.80;99.90;;;;;;6160885;23;20465;-75
2021/10/25 10:47:40;;;;;;;355.43;73.77;;;9.80;99.90;;;;;;6160652;23;20408;-77
2021/10/25 10:50:20;;;;;;;335.13;68.30;;;9.90;99.90;;;;;;6197194;23;20793;-78
2021/10/25 10:52:59;;;;;;;371.57;81.53;;;9.90;99.90;;;;;;6196941;23;20792;-77
2021/10/25 10:55:32;;;;;;;290.40;75.30;;;10.00;99.90;;;;;;6160975;23;20860;-78
2021/10/25 11:00:49;;;;;;;287.80;69.97;;;10.10;99.90;;;;;;6196678;23;20808;-77
2021/10/25 11:03:21;;;;;;;375.30;85.03;;;10.10;99.90;;;;;;6160137;23;20470;-77
2021/10/25 11:05:55;;;;;;;333.10;72.47;;;10.20;99.90;;;;;;6160246;23;20502;-78
2021/10/25 11:08:25;;;;;;;311.43;73.03;;;10.20;99.90;;;;;;6161335;23;20411;-77
2021/10/25 11:11:04;;;;;;;246.90;69.13;;;10.30;99.90;;;;;;6186937;23;20423;-78
2021/10/25 11:13:39;;;;;;;275.40;72.43;;;10.30;99.90;;;;;;6160100;23;20440;-77
2021/10/25 11:16:13;;;;;;;248.47;70.63;;;10.40;99.90;;;;;;6160325;23;20419;-78
2021/10/25 11:18:44;;;;;;;253.17;73.23;;;10.40;99.90;;;;;;6196568;23;20471;-78
2021/10/25 11:21:19;;;;;;;245.07;79.80;;;10.50;99.90;;;;;;6196972;23;20376;-78
2021/10/25 11:23:51;;;;;;;204.40;65.57;;;10.60;99.90;;;;;;6160200;23;20443;-77
2021/10/25 11:26:23;;;;;;;288.97;63.23;;;10.60;99.90;;;;;;6160131;23;20399;-77
2021/10/25 11:28:57;;;;;;;331.30;95.20;;;10.70;99.90;;;;;;6159948;23;20439;-77
2021/10/25 11:31:27;;;;;;;326.03;85.23;;;10.70;99.90;;;;;;6160069;23;20911;-78
2021/10/25 11:33:56;;;;;;;376.30;100.00;;;10.80;99.90;;;;;;6186696;23;20482;-77
2021/10/25 11:36:28;;;;;;;350.03;112.53;;;10.80;99.90;;;;;;6160228;23;20502;-77
2021/10/25 11:38:57;;;;;;;333.80;93.30;;;10.90;99.90;;;;;;6196773;23;20398;-78
2021/10/25 11:41:26;;;;;;;407.00;114.23;;;11.00;99.90;;;;;;6160465;23;20443;-78
2021/10/25 11:43:54;;;;;;;415.90;118.50;;;11.00;99.90;;;;;;6159976;23;20411;-75
2021/10/25 11:46:23;;;;;;;380.63;111.33;;;11.00;99.90;;;;;;6186466;23;20990;-75
2021/10/25 11:48:58;;;;;;;340.90;104.20;;;11.10;99.90;;;;;;6159653;23;20426;-75
2021/10/25 11:51:28;;;;;;;406.97;122.13;;;11.10;99.90;;;;;;6160127;23;20418;-75
2021/10/25 11:53:57;;;;;;;347.57;101.53;;;11.20;99.90;;;;;;6196144;23;20834;-75
2021/10/25 11:56:29;;;;;;;387.80;110.10;;;11.20;99.90;;;;;;6196329;23;20479;-76
2021/10/25 11:58:57;;;;;;;101.73;49.77;;;11.20;99.90;;;;;;6159960;23;20813;-75
2021/10/25 12:01:26;;;;;;;426.97;106.40;;;11.30;99.90;;;;;;6160221;23;20415;-75
2021/10/25 12:04:06;;;;;;;154.63;53.47;;;11.40;99.90;;;;;;6160354;23;20411;-76
2021/10/25 12:06:36;;;;;;;81.10;44.50;;;11.40;99.90;;;;;;6160278;23;20411;-75
2021/10/25 12:09:08;;;;;;;134.17;68.90;;;11.40;99.90;;;;;;6160087;23;20949;-75
2021/10/25 12:11:50;;;;;;;190.43;58.03;;;11.40;99.90;;;;;;6159860;23;20438;-76
2021/10/25 12:14:26;;;;;;;278.43;81.27;;;11.50;99.90;;;;;;6159542;23;20990;-77
2021/10/25 12:16:54;;;;;;;71.00;31.97;;;11.60;99.90;;;;;;6186973;23;20387;-78
2021/10/25 12:19:23;;;;;;;32.63;29.47;;;11.60;99.90;;;;;;6159538;23;20857;-77
2021/10/25 12:21:52;;;;;;;125.50;53.70;;;11.60;99.90;;;;;;6159528;23;20826;-77
2021/10/25 12:24:22;;;;;;;58.57;49.40;;;11.60;99.90;;;;;;6159268;23;20892;-78
2021/10/25 12:27:02;;;;;;;58.37;43.33;;;11.70;99.90;;;;;;6196060;23;20918;-77
2021/10/25 12:29:30;;;;;;;59.83;43.53;;;11.70;99.90;;;;;;6159466;23;20525;-77
2021/10/25 12:32:08;;;;;;;72.93;50.53;;;11.70;99.90;;;;;;6159503;23;20506;-78
2021/10/25 12:34:49;;;;;;;76.33;34.67;;;11.70;99.90;;;;;;6159436;23;20469;-77
2021/10/25 12:37:22;;;;;;;247.17;82.57;;;11.70;99.90;;;;;;6159246;23;20403;-77
2021/10/25 12:39:54;;;;;;;36.03;29.67;;;11.80;99.90;;;;;;6159269;23;20450;-78
2021/10/25 12:42:24;;;;;;;55.40;33.53;;;11.80;99.90;;;;;;6159289;23;20455;-77
2021/10/25 12:44:54;;;;;;;35.20;30.80;;;11.80;99.90;;;;;;6159208;23;20408;-77
2021/10/25 12:47:25;;;;;;;71.30;42.20;;;11.90;99.90;;;;;;6195642;23;20392;-77
2021/10/25 12:49:57;;;;;;;442.13;104.37;;;11.90;99.90;;;;;;6159553;23;20968;-77
2021/10/25 12:52:30;;;;;;;234.87;77.00;;;11.90;99.90;;;;;;6187182;23;20426;-77
2021/10/25 12:55:03;;;;;;;121.33;50.27;;;11.90;99.90;;;;;;6159718;23;20522;-78
2021/10/25 12:57:35;;;;;;;120.60;61.37;;;11.90;99.90;;;;;;6186088;23;20428;-77
2021/10/25 13:00:09;;;;;;;127.37;38.13;;;12.00;99.90;;;;;;6195971;23;20443;-77
2021/10/25 13:02:43;;;;;;;400.80;109.27;;;12.00;99.90;;;;;;6159263;23;20403;-77
2021/10/25 13:05:15;;;;;;;158.27;64.17;;;12.00;99.90;;;;;;6159422;23;20957;-77
2021/10/25 13:07:49;;;;;;;335.80;100.77;;;12.00;99.90;;;;;;6159255;23;20415;-77
2021/10/25 13:10:19;;;;;;;246.13;64.10;;;12.00;99.90;;;;;;6159233;23;20824;-78
2021/10/25 13:12:50;;;;;;;362.27;91.13;;;12.00;99.90;;;;;;6159293;23;20443;-77
2021/10/25 13:15:18;;;;;;;387.10;101.97;;;12.10;99.90;;;;;;6159122;23;20438;-77
2021/10/25 13:17:47;;;;;;;354.13;110.47;;;12.10;99.90;;;;;;6185896;23;20486;-77
2021/10/25 13:20:20;;;;;;;365.87;100.57;;;12.10;99.90;;;;;;6158890;23;20435;-77
2021/10/25 13:22:49;;;;;;;342.50;85.33;;;12.20;99.90;;;;;;6185899;23;20782;-78
2021/10/25 13:25:18;;;;;;;412.40;116.80;;;12.20;99.90;;;;;;6159362;23;20412;-76
2021/10/25 13:27:49;;;;;;;344.57;89.93;;;12.20;99.90;;;;;;6159508;23;20425;-75
2021/10/25 13:30:19;;;;;;;373.30;112.23;;;12.30;99.90;;;;;;6195591;23;20419;-75
2021/10/25 13:32:47;;;;;;;363.63;94.10;;;12.30;99.90;;;;;;6159245;23;20421;-76
2021/10/25 13:35:16;;;;;;;119.07;55.90;;;12.30;99.90;;;;;;6159400;23;20526;-76
2021/10/25 13:37:45;;;;;;;384.37;109.33;;;12.40;99.90;;;;;;6161024;23;20422;-75
2021/10/25 13:40:14;;;;;;;173.77;48.93;;;12.40;99.90;;;;;;6160805;23;20482;-75
2021/10/25 13:42:42;;;;;;;520.20;126.57;;;12.40;99.90;;;;;;6161352;23;20818;-75
2021/10/25 13:45:12;;;;;;;132.47;62.43;;;12.40;99.90;;;;;;6187296;23;20890;-75
2021/10/25 13:47:40;;;;;;;219.97;87.70;;;12.50;99.90;;;;;;6161157;23;20413;-75
2021/10/25 13:50:09;;;;;;;34.73;27.97;;;12.50;99.90;;;;;;6161184;23;20443;-75
2021/10/25 13:52:37;;;;;;;40.73;32.80;;;12.60;99.90;;;;;;6198095;23;20402;-75
2021/10/25 13:55:06;;;;;;;384.10;123.40;;;12.60;99.90;;;;;;6161066;23;20431;-75
2021/10/25 13:57:38;;;;;;;166.43;53.73;;;12.60;99.90;;;;;;6161025;23;20494;-76
2021/10/25 14:00:08;;;;;;;43.27;39.40;;;12.60;99.90;;;;;;6161008;23;20478;-75
2021/10/25 14:02:41;;;;;;;477.57;135.00;;;12.60;99.90;;;;;;6187772;23;20380;-75
2021/10/25 14:05:11;;;;;;;71.83;56.33;;;12.60;99.90;;;;;;6160881;23;20499;-76
2021/10/25 14:07:39;;;;;;;102.20;68.93;;;12.70;99.90;;;;;;6161254;23;20423;-77